Time;durP1;ratioP1;P1;durP2;ratioP2;P2;SDS_P1;SDS_P2;PMS_P1;PMS_P2;Temp;Humidity;BMP_temperature;BMP_pressure;BME280_temperature;BME280_humidity;BME280_pressure;Samples;Min_cycle;Max_cycle;Signal;HPM_P1;HPM_P2
2023/01/06 00:01:33;;;;;;;39.83;37.00;;;23.00;70.70;;;;;;5060953;28;20483;-56
2023/01/06 00:04:01;;;;;;;39.90;37.00;;;23.00;70.60;;;;;;5061322;28;20455;-59
2023/01/06 00:06:30;;;;;;;38.80;36.10;;;23.00;70.50;;;;;;5061140;28;20445;-57
2023/01/06 00:08:58;;;;;;;39.30;36.23;;;23.00;70.50;;;;;;5059658;28;20526;-58
2023/01/06 00:11:26;;;;;;;39.23;36.13;;;23.00;70.40;;;;;;5059817;28;20917;-58
2023/01/06 00:13:55;;;;;;;38.60;35.87;;;23.00;70.40;;;;;;5059598;28;20443;-58
2023/01/06 00:16:23;;;;;;;36.40;33.73;;;23.00;70.30;;;;;;5059984;28;20451;-56
2023/01/06 00:18:53;;;;;;;38.03;35.23;;;23.00;70.30;;;;;;5058870;28;20480;-55
2023/01/06 00:21:20;;;;;;;36.63;33.93;;;23.00;70.30;;;;;;5059183;28;20448;-58
2023/01/06 00:23:47;;;;;;;39.13;36.23;;;22.90;70.10;;;;;;5058511;28;20539;-60
2023/01/06 00:26:14;;;;;;;36.63;34.23;;;23.00;70.20;;;;;;5058826;28;20504;-57
2023/01/06 00:28:42;;;;;;;36.07;33.60;;;22.90;70.00;;;;;;5058695;28;20464;-55
2023/01/06 00:31:10;;;;;;;36.93;34.33;;;22.90;70.00;;;;;;5058606;28;20582;-59
2023/01/06 00:33:37;;;;;;;34.70;32.30;;;22.90;70.00;;;;;;5058460;28;20592;-59
2023/01/06 00:36:05;;;;;;;37.00;34.40;;;22.90;70.00;;;;;;5057437;28;20448;-58
2023/01/06 00:38:35;;;;;;;33.43;31.30;;;22.90;69.90;;;;;;5058646;28;20468;-58
2023/01/06 00:41:04;;;;;;;33.70;31.40;;;22.90;69.80;;;;;;5058506;28;20878;-58
2023/01/06 00:43:31;;;;;;;35.00;32.50;;;22.90;69.90;;;;;;5059078;28;20476;-58
2023/01/06 00:46:01;;;;;;;33.00;30.90;;;22.90;69.80;;;;;;5059162;28;20444;-58
2023/01/06 00:48:28;;;;;;;34.37;32.10;;;22.90;69.80;;;;;;5058752;28;20547;-59
2023/01/06 00:51:00;;;;;;;35.50;33.10;;;22.90;69.80;;;;;;5059168;28;20485;-59
2023/01/06 00:53:27;;;;;;;33.70;31.60;;;22.90;69.80;;;;;;5058870;28;20523;-60
2023/01/06 00:56:00;;;;;;;33.67;31.40;;;22.90;69.80;;;;;;5058172;28;20535;-57
2023/01/06 00:58:29;;;;;;;33.47;31.17;;;22.90;69.80;;;;;;5058450;28;20463;-57
2023/01/06 01:00:56;;;;;;;34.07;31.77;;;22.90;69.80;;;;;;5058415;28;20454;-58
2023/01/06 01:03:25;;;;;;;34.23;31.83;;;22.80;69.70;;;;;;5058544;28;20539;-59
2023/01/06 01:05:52;;;;;;;32.73;30.73;;;22.80;69.70;;;;;;5057727;28;20470;-56
2023/01/06 01:08:19;;;;;;;31.20;29.30;;;22.80;69.70;;;;;;5058429;28;20516;-57
2023/01/06 01:10:45;;;;;;;30.47;28.60;;;22.90;69.80;;;;;;5057574;28;21119;-57
2023/01/06 01:13:12;;;;;;;30.83;28.93;;;22.90;69.80;;;;;;5059460;28;20472;-57
2023/01/06 01:15:39;;;;;;;30.33;28.53;;;22.80;69.90;;;;;;5059932;28;20439;-58
2023/01/06 01:18:06;;;;;;;31.13;29.23;;;22.80;70.00;;;;;;5059994;28;20462;-58
2023/01/06 01:20:34;;;;;;;31.10;29.13;;;22.80;70.00;;;;;;5058226;28;20543;-57
2023/01/06 01:23:01;;;;;;;28.77;27.07;;;22.90;70.10;;;;;;5059659;28;20566;-55
2023/01/06 01:25:28;;;;;;;30.27;28.27;;;22.90;70.10;;;;;;5058343;28;20454;-58
2023/01/06 01:27:55;;;;;;;31.10;29.00;;;22.90;70.10;;;;;;5059215;28;20480;-58
2023/01/06 01:30:21;;;;;;;31.47;29.57;;;22.90;70.00;;;;;;5058961;28;20495;-55
2023/01/06 01:32:48;;;;;;;30.20;28.40;;;22.90;70.00;;;;;;5058298;28;20523;-58
2023/01/06 01:35:15;;;;;;;30.50;28.43;;;22.90;70.00;;;;;;5060160;28;20590;-59
2023/01/06 01:37:43;;;;;;;30.73;28.73;;;22.90;69.90;;;;;;5059657;28;20467;-58
2023/01/06 01:40:11;;;;;;;29.50;27.60;;;22.90;69.90;;;;;;5060934;28;21002;-58
2023/01/06 01:42:38;;;;;;;28.63;26.90;;;22.90;69.90;;;;;;5060237;28;20913;-56
2023/01/06 01:45:06;;;;;;;29.00;27.40;;;22.90;69.80;;;;;;5058995;28;20536;-57
2023/01/06 01:47:43;;;;;;;28.00;26.47;;;22.90;69.80;;;;;;5059323;28;20444;-57
2023/01/06 01:50:21;;;;;;;28.57;26.70;;;22.90;70.60;;;;;;5060154;28;20496;-56
2023/01/06 01:52:52;;;;;;;27.37;25.97;;;22.90;69.70;;;;;;5059340;28;20436;-59
2023/01/06 01:55:20;;;;;;;28.13;26.47;;;22.90;69.70;;;;;;5058371;28;20454;-59
2023/01/06 01:57:51;;;;;;;26.60;25.10;;;22.80;69.60;;;;;;5056956;28;20446;-54
2023/01/06 02:00:19;;;;;;;27.60;26.03;;;22.80;69.60;;;;;;5057685;28;20543;-58
2023/01/06 02:02:46;;;;;;;27.47;25.87;;;22.80;69.60;;;;;;5057505;28;20480;-56
2023/01/06 02:05:18;;;;;;;28.67;26.97;;;22.80;69.40;;;;;;5057936;28;20440;-57
2023/01/06 02:07:46;;;;;;;28.30;26.60;;;22.80;69.40;;;;;;5058410;28;20451;-57
2023/01/06 02:10:17;;;;;;;27.13;25.57;;;22.80;70.20;;;;;;5059203;28;20464;-59
2023/01/06 02:12:46;;;;;;;26.60;25.00;;;22.80;69.40;;;;;;5058905;28;20448;-58
2023/01/06 02:15:21;;;;;;;26.27;24.80;;;22.80;69.40;;;;;;5059938;28;20452;-58
2023/01/06 02:18:08;;;;;;;26.60;25.10;;;22.80;69.40;;;;;;5059093;28;20453;-57
2023/01/06 02:21:05;;;;;;;25.43;24.20;;;22.80;69.30;;;;;;5059100;28;20852;-56
2023/01/06 02:23:56;;;;;;;26.93;25.43;;;22.80;69.30;;;;;;5045765;28;20482;-58
2023/01/06 02:26:59;;;;;;;24.63;23.37;;;22.80;69.40;;;;;;5058801;28;20456;-58
2023/01/06 02:30:11;;;;;;;23.90;22.70;;;22.80;69.30;;;;;;5058286;28;20472;-58
2023/01/06 02:33:01;;;;;;;25.57;24.07;;;22.70;69.20;;;;;;5049354;28;20449;-59
2023/01/06 02:35:59;;;;;;;25.33;24.03;;;22.70;69.20;;;;;;5057592;28;20479;-58
2023/01/06 02:38:40;;;;;;;25.03;23.63;;;22.70;69.30;;;;;;5042110;28;20470;-58
2023/01/06 02:41:15;;;;;;;25.17;23.87;;;22.70;69.20;;;;;;5058232;28;20444;-56
2023/01/06 02:43:51;;;;;;;24.93;23.47;;;22.70;69.40;;;;;;5058109;28;20482;-59
2023/01/06 02:46:30;;;;;;;24.13;22.87;;;22.80;69.60;;;;;;5059757;28;20458;-59
2023/01/06 02:49:09;;;;;;;24.27;23.00;;;22.80;69.60;;;;;;5056124;28;20468;-58
2023/01/06 02:51:43;;;;;;;23.57;22.33;;;22.80;69.60;;;;;;5058269;28;20451;-57
2023/01/06 02:54:18;;;;;;;24.67;23.33;;;22.80;69.50;;;;;;5056884;28;20531;-56
2023/01/06 02:56:51;;;;;;;24.53;23.33;;;22.80;69.50;;;;;;5055914;28;20454;-58
2023/01/06 02:59:23;;;;;;;23.87;22.77;;;22.80;69.40;;;;;;5055895;28;20995;-58
2023/01/06 03:01:53;;;;;;;23.70;22.50;;;22.80;69.30;;;;;;5056570;28;20494;-55
2023/01/06 03:04:25;;;;;;;23.23;22.10;;;22.80;69.30;;;;;;5057522;28;20484;-58
2023/01/06 03:06:56;;;;;;;22.97;21.60;;;22.80;69.20;;;;;;5057262;28;20530;-56
2023/01/06 03:09:27;;;;;;;23.27;22.10;;;22.80;69.20;;;;;;5057101;28;20464;-58
2023/01/06 03:11:54;;;;;;;23.70;22.50;;;22.80;69.10;;;;;;5057985;28;20454;-58
2023/01/06 03:14:25;;;;;;;23.67;22.57;;;22.80;69.00;;;;;;5056766;28;20623;-58
2023/01/06 03:16:54;;;;;;;22.80;21.70;;;22.80;69.00;;;;;;5058100;28;20448;-57
2023/01/06 03:19:23;;;;;;;23.17;21.97;;;22.80;68.90;;;;;;5057465;28;20475;-58
2023/01/06 03:21:51;;;;;;;22.60;21.57;;;22.80;68.90;;;;;;5058396;28;20444;-59
2023/01/06 03:24:18;;;;;;;24.03;22.70;;;22.80;68.80;;;;;;5058729;28;20484;-58
2023/01/06 03:26:48;;;;;;;22.63;21.60;;;22.80;68.80;;;;;;5058334;28;20534;-58
2023/01/06 03:29:17;;;;;;;23.40;22.20;;;22.80;68.80;;;;;;5058430;28;20895;-58
2023/01/06 03:31:53;;;;;;;22.93;21.83;;;22.70;68.60;;;;;;5058499;28;20534;-59
2023/01/06 03:34:33;;;;;;;22.80;21.80;;;22.70;69.00;;;;;;5057480;28;20444;-58
2023/01/06 03:37:09;;;;;;;22.70;21.67;;;22.70;68.50;;;;;;5059563;28;20446;-58
2023/01/06 03:39:45;;;;;;;22.40;21.40;;;22.80;68.60;;;;;;5057996;28;20478;-56
2023/01/06 03:45:21;;;;;;;23.03;21.93;;;22.70;68.50;;;;;;5041795;28;20428;-57
2023/01/06 03:47:55;;;;;;;22.23;21.13;;;22.70;68.50;;;;;;5040846;28;20966;-55
2023/01/06 03:50:30;;;;;;;22.47;21.47;;;22.70;68.50;;;;;;5040709;28;20469;-58
2023/01/06 03:53:11;;;;;;;22.53;21.53;;;22.70;68.60;;;;;;5041078;28;20440;-58
2023/01/06 03:55:40;;;;;;;21.90;20.90;;;22.70;68.80;;;;;;5041309;28;20451;-55
2023/01/06 03:58:09;;;;;;;22.27;21.27;;;22.70;68.80;;;;;;5056397;28;20534;-57
2023/01/06 04:00:37;;;;;;;21.43;20.47;;;22.80;68.80;;;;;;5060163;28;20463;-54
2023/01/06 04:03:08;;;;;;;22.13;21.23;;;22.80;68.80;;;;;;5060157;28;20488;-59
2023/01/06 04:05:36;;;;;;;22.20;21.20;;;22.70;68.70;;;;;;5059719;28;20467;-58
2023/01/06 04:08:03;;;;;;;21.80;20.90;;;22.70;68.90;;;;;;5059653;28;20926;-57
2023/01/06 04:10:30;;;;;;;21.70;20.80;;;22.80;69.10;;;;;;5059203;28;20618;-57
2023/01/06 04:12:56;;;;;;;21.40;20.40;;;22.80;69.00;;;;;;5059454;28;20504;-56
2023/01/06 04:15:25;;;;;;;21.30;20.40;;;22.80;69.10;;;;;;5059625;28;20450;-57
2023/01/06 04:17:52;;;;;;;20.77;19.93;;;22.80;68.90;;;;;;5059860;28;20472;-56
2023/01/06 04:20:21;;;;;;;20.70;19.90;;;22.90;69.00;;;;;;5059032;28;20563;-57
2023/01/06 04:22:49;;;;;;;21.40;20.40;;;22.90;68.80;;;;;;5059602;28;20852;-58
2023/01/06 04:25:16;;;;;;;22.03;21.03;;;22.90;68.70;;;;;;5059563;28;20448;-57
2023/01/06 04:27:43;;;;;;;20.47;19.67;;;22.90;68.60;;;;;;5059546;28;20445;-59
2023/01/06 04:30:11;;;;;;;20.50;19.60;;;23.00;68.60;;;;;;5059159;28;20463;-57
2023/01/06 04:32:38;;;;;;;21.70;20.70;;;22.90;68.40;;;;;;5059205;28;20448;-52
2023/01/06 04:35:05;;;;;;;20.60;19.80;;;23.00;68.50;;;;;;5059990;28;20447;-58
2023/01/06 04:37:33;;;;;;;20.60;19.70;;;23.00;68.40;;;;;;5059717;28;20450;-56
2023/01/06 04:40:01;;;;;;;21.07;20.17;;;23.00;68.30;;;;;;5059369;28;20470;-59
2023/01/06 04:42:28;;;;;;;20.10;19.40;;;23.00;68.20;;;;;;5060193;28;21132;-55
2023/01/06 04:44:55;;;;;;;21.60;20.70;;;23.00;68.10;;;;;;5059448;28;20472;-57
2023/01/06 04:47:21;;;;;;;20.90;20.00;;;23.00;68.10;;;;;;5059799;28;20964;-55
2023/01/06 04:49:48;;;;;;;20.90;19.90;;;23.00;68.10;;;;;;5059006;28;20464;-56
2023/01/06 04:52:16;;;;;;;21.30;20.40;;;23.00;68.10;;;;;;5059585;28;20475;-56
2023/01/06 04:54:43;;;;;;;21.93;20.97;;;23.10;68.30;;;;;;5057811;28;20523;-55
2023/01/06 04:57:11;;;;;;;20.90;20.10;;;23.10;68.30;;;;;;5058569;28;20530;-57
2023/01/06 04:59:38;;;;;;;20.83;20.00;;;23.10;68.20;;;;;;5059051;28;20541;-58
2023/01/06 05:02:05;;;;;;;21.40;20.60;;;23.10;68.00;;;;;;5060791;28;20440;-58
2023/01/06 05:04:31;;;;;;;21.90;21.00;;;23.10;68.00;;;;;;5060163;28;20579;-56
2023/01/06 05:06:58;;;;;;;21.80;20.90;;;23.10;67.90;;;;;;5059549;28;20535;-57
2023/01/06 05:09:25;;;;;;;21.67;20.77;;;23.20;67.90;;;;;;5057764;28;20558;-57
2023/01/06 05:11:52;;;;;;;23.10;22.10;;;23.20;67.70;;;;;;5057870;28;20448;-55
2023/01/06 05:14:20;;;;;;;20.97;20.07;;;23.20;67.70;;;;;;5057990;28;21121;-57
2023/01/06 05:16:47;;;;;;;21.93;20.97;;;23.20;67.50;;;;;;5058813;28;20444;-59
2023/01/06 05:19:13;;;;;;;21.57;20.57;;;23.20;67.50;;;;;;5058236;28;20476;-58
2023/01/06 05:21:40;;;;;;;20.83;20.03;;;23.20;67.40;;;;;;5053853;28;20522;-54
2023/01/06 05:24:09;;;;;;;21.30;20.50;;;23.20;67.30;;;;;;5052535;28;20861;-57
2023/01/06 05:26:36;;;;;;;20.87;20.07;;;23.20;67.20;;;;;;5052666;28;20454;-54
2023/01/06 05:29:03;;;;;;;21.57;20.67;;;23.20;67.10;;;;;;5052537;28;20470;-54
2023/01/06 05:31:31;;;;;;;20.60;19.90;;;23.20;67.00;;;;;;5052541;28;20444;-56
2023/01/06 05:33:57;;;;;;;21.57;20.67;;;23.20;67.00;;;;;;5052653;28;21034;-55
2023/01/06 05:36:24;;;;;;;20.73;19.90;;;23.20;66.90;;;;;;5052797;28;20530;-56
2023/01/06 05:38:52;;;;;;;20.23;19.43;;;23.20;66.90;;;;;;5051921;28;20569;-56
2023/01/06 05:41:19;;;;;;;20.97;20.07;;;23.30;67.10;;;;;;5052381;28;20819;-53
2023/01/06 05:43:46;;;;;;;21.63;20.73;;;23.30;67.10;;;;;;5052204;28;20563;-55
2023/01/06 05:46:12;;;;;;;21.13;20.33;;;23.30;67.10;;;;;;5052322;28;20528;-52
2023/01/06 05:48:41;;;;;;;20.90;20.10;;;23.30;66.90;;;;;;5052251;28;20550;-55
2023/01/06 05:51:09;;;;;;;21.20;20.40;;;23.30;66.80;;;;;;5052086;28;20456;-52
2023/01/06 05:53:38;;;;;;;20.60;19.80;;;23.30;66.60;;;;;;5052013;28;20440;-56
2023/01/06 05:56:05;;;;;;;20.40;19.60;;;23.30;67.30;;;;;;5052491;28;20446;-55
2023/01/06 05:58:32;;;;;;;20.60;19.80;;;23.30;66.40;;;;;;5052098;28;20444;-53
2023/01/06 06:01:00;;;;;;;21.40;20.50;;;23.40;66.40;;;;;;5051871;28;20506;-54
2023/01/06 06:03:27;;;;;;;20.53;19.73;;;23.40;66.30;;;;;;5051975;28;20845;-55
2023/01/06 06:05:55;;;;;;;21.63;20.73;;;23.40;66.10;;;;;;5052324;28;20958;-52
2023/01/06 06:08:22;;;;;;;21.47;20.57;;;23.40;66.00;;;;;;5051743;28;20547;-54
2023/01/06 06:10:48;;;;;;;21.30;20.50;;;23.40;65.90;;;;;;5051156;28;20440;-56
2023/01/06 06:13:15;;;;;;;21.50;20.60;;;23.40;65.80;;;;;;5051955;28;20444;-55
2023/01/06 06:15:42;;;;;;;21.40;20.60;;;23.40;65.80;;;;;;5051902;28;20546;-52
2023/01/06 06:18:09;;;;;;;21.40;20.60;;;23.40;65.80;;;;;;5051545;28;20865;-56
2023/01/06 06:20:36;;;;;;;22.10;21.20;;;23.40;65.80;;;;;;5051593;28;21037;-56
2023/01/06 06:23:04;;;;;;;21.27;20.50;;;23.40;65.80;;;;;;5052001;28;20531;-58
2023/01/06 06:25:31;;;;;;;20.83;20.03;;;23.40;65.90;;;;;;5051456;28;20786;-53
2023/01/06 06:27:58;;;;;;;20.93;20.13;;;23.40;65.80;;;;;;5051653;28;20444;-52
2023/01/06 06:30:25;;;;;;;21.60;20.70;;;23.50;65.80;;;;;;5051474;28;20476;-54
2023/01/06 06:32:52;;;;;;;21.93;21.00;;;23.50;65.70;;;;;;5051648;28;21037;-57
2023/01/06 06:35:19;;;;;;;20.37;19.47;;;23.40;65.40;;;;;;5051460;28;20527;-58
2023/01/06 06:37:46;;;;;;;20.50;19.70;;;23.50;65.40;;;;;;5051588;28;21016;-53
2023/01/06 06:40:14;;;;;;;20.70;19.90;;;23.50;65.40;;;;;;5051454;28;20555;-54
2023/01/06 06:42:41;;;;;;;21.00;20.23;;;23.50;65.30;;;;;;5051503;28;20536;-54
2023/01/06 06:45:09;;;;;;;21.10;20.20;;;23.50;65.50;;;;;;5058322;28;20575;-57
2023/01/06 06:47:36;;;;;;;20.67;19.77;;;23.50;65.20;;;;;;5054852;28;20452;-51
2023/01/06 06:50:03;;;;;;;20.40;19.70;;;23.50;65.10;;;;;;5050948;28;20909;-53
2023/01/06 06:52:29;;;;;;;20.50;19.70;;;23.50;65.10;;;;;;5054269;28;20444;-54
2023/01/06 06:54:56;;;;;;;21.00;20.20;;;23.50;65.10;;;;;;5054485;28;20882;-51
2023/01/06 06:57:24;;;;;;;20.87;19.77;;;23.50;65.00;;;;;;5054845;28;20542;-51
2023/01/06 06:59:51;;;;;;;20.80;20.00;;;23.50;65.00;;;;;;5054709;28;20873;-52
2023/01/06 07:02:18;;;;;;;20.97;20.17;;;23.50;65.00;;;;;;5052546;28;20450;-56
2023/01/06 07:04:45;;;;;;;20.93;20.13;;;23.50;64.90;;;;;;5052895;28;20559;-57
2023/01/06 07:07:12;;;;;;;21.10;20.30;;;23.60;64.90;;;;;;5051244;28;20529;-54
2023/01/06 07:09:38;;;;;;;20.07;19.27;;;23.60;64.90;;;;;;5050783;28;20468;-52
2023/01/06 07:12:06;;;;;;;19.93;19.20;;;23.60;64.80;;;;;;5051230;28;20446;-54
2023/01/06 07:14:34;;;;;;;20.67;19.80;;;23.60;64.60;;;;;;5051306;28;20446;-52
2023/01/06 07:17:01;;;;;;;20.87;19.97;;;23.60;64.60;;;;;;5051227;28;20531;-53
2023/01/06 07:19:28;;;;;;;20.80;19.90;;;23.60;64.50;;;;;;5053260;28;20526;-56
2023/01/06 07:21:55;;;;;;;20.40;19.60;;;23.60;64.40;;;;;;5054665;28;20542;-53
2023/01/06 07:24:22;;;;;;;21.10;20.30;;;23.60;64.30;;;;;;5054939;28;20487;-51
2023/01/06 07:26:49;;;;;;;20.90;20.10;;;23.60;64.20;;;;;;5054878;28;20444;-54
2023/01/06 07:29:16;;;;;;;21.40;20.60;;;23.60;64.10;;;;;;5057236;28;20542;-53
2023/01/06 07:31:44;;;;;;;21.37;20.57;;;23.60;64.00;;;;;;5054893;28;20473;-56
2023/01/06 07:34:11;;;;;;;22.23;21.33;;;23.60;64.00;;;;;;5055738;28;20511;-55
2023/01/06 07:36:37;;;;;;;21.77;20.97;;;23.60;63.90;;;;;;5057286;28;20450;-55
2023/01/06 07:39:04;;;;;;;21.37;20.57;;;23.60;63.80;;;;;;5057801;28;20531;-56
2023/01/06 07:41:32;;;;;;;21.80;21.00;;;23.60;63.80;;;;;;5054479;28;20542;-54
2023/01/06 07:43:59;;;;;;;21.70;20.90;;;23.60;63.80;;;;;;5057515;28;20836;-59
2023/01/06 07:46:25;;;;;;;21.30;20.50;;;23.60;63.70;;;;;;5055403;28;20454;-53
2023/01/06 07:48:53;;;;;;;21.37;20.67;;;23.60;63.70;;;;;;5054599;28;20490;-55
2023/01/06 07:51:20;;;;;;;21.67;20.90;;;23.60;63.80;;;;;;5057741;28;20511;-54
2023/01/06 07:53:47;;;;;;;22.00;21.20;;;23.60;63.80;;;;;;5056134;28;20547;-58
2023/01/06 07:56:14;;;;;;;21.83;21.07;;;23.60;63.80;;;;;;5054257;28;20783;-52
2023/01/06 07:58:41;;;;;;;20.97;20.27;;;23.60;63.70;;;;;;5059074;28;20989;-59
2023/01/06 08:01:08;;;;;;;20.57;19.87;;;23.70;63.70;;;;;;5059739;28;20527;-57
2023/01/06 08:03:35;;;;;;;20.73;19.90;;;23.60;63.50;;;;;;5057611;28;20444;-59
2023/01/06 08:06:08;;;;;;;20.13;19.43;;;23.70;63.50;;;;;;5059201;28;20571;-58
2023/01/06 08:08:36;;;;;;;19.67;18.97;;;23.70;63.50;;;;;;5054320;28;20452;-54
2023/01/06 08:11:03;;;;;;;19.97;19.27;;;23.70;63.50;;;;;;5058294;28;20445;-58
2023/01/06 08:13:30;;;;;;;20.20;19.40;;;23.70;63.40;;;;;;5058753;28;20443;-56
2023/01/06 08:15:57;;;;;;;19.70;19.00;;;23.70;63.30;;;;;;5055088;28;20801;-55
2023/01/06 08:18:24;;;;;;;19.70;19.00;;;23.70;63.20;;;;;;5053906;28;20546;-53
2023/01/06 08:20:50;;;;;;;20.20;19.50;;;23.70;63.20;;;;;;5053779;28;20554;-54
2023/01/06 08:23:19;;;;;;;19.90;19.20;;;23.70;63.20;;;;;;5054007;28;20480;-54
2023/01/06 08:25:45;;;;;;;21.10;20.40;;;23.70;63.90;;;;;;5053632;28;20486;-53
2023/01/06 08:28:12;;;;;;;19.90;19.10;;;23.70;64.00;;;;;;5053830;28;20815;-56
2023/01/06 08:30:40;;;;;;;19.57;18.87;;;23.70;63.20;;;;;;5051522;28;20466;-54
2023/01/06 08:33:07;;;;;;;19.70;18.90;;;23.70;63.20;;;;;;5053813;28;20486;-57
2023/01/06 08:35:34;;;;;;;19.10;18.40;;;23.70;63.10;;;;;;5053683;28;20526;-52
2023/01/06 08:38:01;;;;;;;21.00;20.20;;;23.70;63.10;;;;;;5053744;28;20938;-55
2023/01/06 08:40:29;;;;;;;20.20;19.50;;;23.70;63.10;;;;;;5053064;28;20555;-54
2023/01/06 08:42:56;;;;;;;19.90;19.20;;;23.70;63.00;;;;;;5057519;28;20501;-58
2023/01/06 08:45:22;;;;;;;19.83;19.13;;;23.80;63.10;;;;;;5058099;28;20576;-58
2023/01/06 08:47:49;;;;;;;19.90;19.20;;;23.80;63.10;;;;;;5058362;28;20758;-58
2023/01/06 08:50:16;;;;;;;19.93;19.23;;;23.80;63.00;;;;;;5058068;28;20551;-58
2023/01/06 08:52:43;;;;;;;20.07;19.30;;;23.80;63.00;;;;;;5057649;28;20448;-55
2023/01/06 08:55:10;;;;;;;19.47;18.77;;;23.70;62.80;;;;;;5056975;28;20535;-55
2023/01/06 08:57:38;;;;;;;19.40;18.70;;;23.80;62.80;;;;;;5053464;28;20441;-55
2023/01/06 09:00:07;;;;;;;20.13;19.10;;;23.80;62.80;;;;;;5052935;28;20478;-57
2023/01/06 09:02:34;;;;;;;20.50;19.80;;;23.80;62.80;;;;;;5056771;28;20451;-57
2023/01/06 09:05:00;;;;;;;20.67;19.97;;;23.70;62.70;;;;;;5056917;28;21069;-56
2023/01/06 09:07:28;;;;;;;20.70;19.90;;;23.70;62.60;;;;;;5054803;28;20444;-63
2023/01/06 09:09:55;;;;;;;21.70;20.80;;;23.70;64.10;;;;;;5041536;28;20519;-58
2023/01/06 09:12:22;;;;;;;21.40;20.40;;;23.70;65.50;;;;;;5036029;28;20487;-57
2023/01/06 09:14:50;;;;;;;21.17;20.37;;;23.60;65.20;;;;;;5040167;28;20469;-57
2023/01/06 09:17:17;;;;;;;21.10;20.30;;;22.80;57.20;;;;;;5040073;28;20473;-58
2023/01/06 09:19:44;;;;;;;21.00;20.20;;;22.60;57.30;;;;;;5039646;28;20480;-57
2023/01/06 09:22:11;;;;;;;20.67;19.87;;;22.50;57.80;;;;;;5036449;28;20442;-58
2023/01/06 09:24:38;;;;;;;21.17;20.37;;;22.40;57.40;;;;;;5037380;28;20560;-57
2023/01/06 09:27:05;;;;;;;21.43;20.43;;;22.30;58.00;;;;;;5036250;28;20880;-56
2023/01/06 09:29:31;;;;;;;21.53;20.73;;;22.30;58.10;;;;;;5040831;28;20556;-57
2023/01/06 09:32:00;;;;;;;20.80;20.00;;;22.20;58.30;;;;;;5056273;28;20478;-57
2023/01/06 09:34:26;;;;;;;20.80;19.80;;;22.20;59.20;;;;;;5056104;28;20480;-61
2023/01/06 09:36:54;;;;;;;21.07;20.27;;;22.20;59.40;;;;;;5052991;28;20531;-62
2023/01/06 09:39:21;;;;;;;21.10;20.07;;;22.30;60.10;;;;;;5053433;28;20616;-65
2023/01/06 09:42:04;;;;;;;21.17;20.27;;;22.50;62.50;;;;;;5052389;28;20816;-52
2023/01/06 09:44:33;;;;;;;20.90;20.10;;;22.70;63.90;;;;;;5052220;28;20488;-50
2023/01/06 09:47:03;;;;;;;21.53;20.73;;;22.70;65.70;;;;;;5050350;28;20452;-58
2023/01/06 09:49:43;;;;;;;21.50;20.43;;;22.70;66.40;;;;;;5052183;28;20456;-54
2023/01/06 09:52:24;;;;;;;21.37;20.40;;;22.80;66.10;;;;;;5051957;28;20526;-51
2023/01/06 09:54:56;;;;;;;21.30;20.50;;;22.90;66.40;;;;;;5052305;28;20450;-55
2023/01/06 09:57:30;;;;;;;21.40;20.60;;;22.80;66.20;;;;;;5052159;28;20506;-56
2023/01/06 10:00:00;;;;;;;20.60;19.90;;;22.80;66.30;;;;;;5051780;28;20999;-56
2023/01/06 10:02:33;;;;;;;20.53;19.73;;;22.90;66.40;;;;;;5051909;28;20466;-56
2023/01/06 10:05:00;;;;;;;20.80;20.00;;;22.80;66.40;;;;;;5052737;28;20480;-55
2023/01/06 10:07:37;;;;;;;20.60;19.80;;;22.90;66.50;;;;;;5052611;28;20449;-60
2023/01/06 10:10:17;;;;;;;20.40;19.53;;;22.80;67.60;;;;;;5051930;28;20817;-61
2023/01/06 10:12:56;;;;;;;20.40;19.70;;;22.80;68.00;;;;;;5052055;28;20462;-58
2023/01/06 10:15:29;;;;;;;20.30;19.60;;;22.90;68.30;;;;;;5051879;28;20938;-63
2023/01/06 10:18:11;;;;;;;20.40;19.70;;;22.80;68.10;;;;;;5051961;28;20506;-57
2023/01/06 10:20:55;;;;;;;21.23;20.27;;;22.90;68.50;;;;;;5051668;28;20456;-59
2023/01/06 10:23:55;;;;;;;20.10;19.40;;;22.90;69.00;;;;;;5052966;28;20440;-55
2023/01/06 10:26:29;;;;;;;20.70;19.83;;;22.90;69.10;;;;;;5053116;28;20524;-57
2023/01/06 10:29:02;;;;;;;20.50;19.70;;;22.90;69.40;;;;;;5054082;28;20555;-55
2023/01/06 10:31:34;;;;;;;20.40;19.60;;;22.90;69.40;;;;;;5054749;28;20486;-55
2023/01/06 10:34:03;;;;;;;19.73;19.03;;;22.90;69.30;;;;;;5053949;28;20871;-57
2023/01/06 10:36:32;;;;;;;19.97;19.27;;;22.90;69.70;;;;;;5052883;28;20448;-58
2023/01/06 10:39:05;;;;;;;20.40;19.60;;;23.00;69.50;;;;;;5052746;28;20973;-58
2023/01/06 10:41:40;;;;;;;20.10;19.40;;;23.00;69.00;;;;;;5058955;28;20464;-60
2023/01/06 10:44:09;;;;;;;20.50;19.80;;;22.90;69.40;;;;;;5072800;28;20519;-60
2023/01/06 10:46:37;;;;;;;20.20;19.50;;;22.90;69.90;;;;;;5069735;28;20476;-59
2023/01/06 10:49:11;;;;;;;20.20;19.50;;;23.00;70.50;;;;;;5071890;28;20780;-63
2023/01/06 10:51:41;;;;;;;20.50;19.80;;;22.90;70.10;;;;;;5071369;28;20457;-60
2023/01/06 10:54:12;;;;;;;20.30;19.60;;;22.90;71.00;;;;;;5073474;28;20440;-61
2023/01/06 10:56:43;;;;;;;20.27;19.57;;;23.00;70.30;;;;;;5058481;28;20501;-55
2023/01/06 10:59:11;;;;;;;20.70;19.80;;;23.00;69.70;;;;;;5061062;28;20893;-57
2023/01/06 11:01:49;;;;;;;20.07;19.37;;;23.00;69.20;;;;;;5063489;28;20448;-53
2023/01/06 11:04:18;;;;;;;20.00;19.30;;;23.00;68.70;;;;;;5062168;28;20444;-57
2023/01/06 11:06:49;;;;;;;20.40;19.60;;;23.00;68.50;;;;;;5062069;28;20574;-57
2023/01/06 11:09:28;;;;;;;20.37;19.67;;;23.00;68.40;;;;;;5062636;28;20464;-54
2023/01/06 11:11:57;;;;;;;20.17;19.47;;;23.00;68.50;;;;;;5061448;28;20451;-56
2023/01/06 11:14:28;;;;;;;20.30;19.60;;;23.10;68.60;;;;;;5062164;28;20440;-57
2023/01/06 11:16:59;;;;;;;20.83;20.13;;;23.00;68.60;;;;;;5061488;28;20448;-55
2023/01/06 11:19:36;;;;;;;20.57;19.77;;;23.00;68.70;;;;;;5061105;28;20982;-58
2023/01/06 11:22:04;;;;;;;20.67;19.97;;;23.00;68.70;;;;;;5059545;28;20501;-53
2023/01/06 11:24:31;;;;;;;20.70;19.90;;;23.00;69.30;;;;;;5058788;28;20447;-50
2023/01/06 11:27:01;;;;;;;18.90;18.20;;;23.00;69.90;;;;;;5056632;28;20864;-57
2023/01/06 11:29:31;;;;;;;20.70;20.00;;;22.90;69.10;;;;;;5058441;28;20525;-54
2023/01/06 11:32:02;;;;;;;20.00;19.30;;;23.00;69.30;;;;;;5058821;28;20514;-56
2023/01/06 11:34:30;;;;;;;20.10;19.40;;;23.10;69.00;;;;;;5058725;28;20447;-55
2023/01/06 11:37:00;;;;;;;20.40;19.60;;;23.10;68.70;;;;;;5057834;28;20872;-57
2023/01/06 11:39:30;;;;;;;20.40;19.50;;;23.10;68.70;;;;;;5056685;28;20513;-52
2023/01/06 11:42:03;;;;;;;20.10;19.10;;;23.10;68.70;;;;;;5055313;28;20489;-56
2023/01/06 11:44:34;;;;;;;21.67;20.77;;;23.10;69.00;;;;;;5055477;28;20542;-56
2023/01/06 11:47:05;;;;;;;21.27;20.20;;;23.10;69.00;;;;;;5056214;28;20479;-57
2023/01/06 11:49:36;;;;;;;21.67;20.67;;;23.10;69.10;;;;;;5034956;28;20465;-55
2023/01/06 11:52:07;;;;;;;21.17;20.27;;;23.10;69.10;;;;;;5035315;28;20445;-53
2023/01/06 11:54:37;;;;;;;20.80;20.00;;;23.00;69.20;;;;;;5035446;28;20531;-56
2023/01/06 11:57:21;;;;;;;21.30;20.40;;;23.00;69.50;;;;;;5035354;28;20437;-53
2023/01/06 12:00:01;;;;;;;22.20;21.30;;;23.00;69.60;;;;;;5034397;28;20879;-54
2023/01/06 12:02:35;;;;;;;21.80;20.90;;;22.90;69.70;;;;;;5034380;28;20927;-54
2023/01/06 12:05:06;;;;;;;21.47;20.47;;;22.90;69.80;;;;;;5054023;28;20889;-54
2023/01/06 12:07:40;;;;;;;21.40;20.50;;;22.90;70.00;;;;;;5054341;28;20793;-59
2023/01/06 12:10:21;;;;;;;21.27;20.40;;;22.90;70.10;;;;;;5054436;28;20468;-56
2023/01/06 12:12:49;;;;;;;21.20;20.30;;;22.80;69.80;;;;;;5054385;28;20878;-56
2023/01/06 12:15:18;;;;;;;21.40;20.50;;;22.90;69.70;;;;;;5054340;28;20515;-50
2023/01/06 12:17:51;;;;;;;20.70;19.90;;;22.90;69.30;;;;;;5054181;28;20456;-55
2023/01/06 12:20:22;;;;;;;21.10;20.20;;;22.90;69.20;;;;;;5054143;28;20472;-57
2023/01/06 12:22:54;;;;;;;21.00;20.20;;;22.90;69.10;;;;;;5053769;28;20946;-60
2023/01/06 12:25:25;;;;;;;21.83;20.93;;;22.80;68.90;;;;;;5054154;28;20488;-59
2023/01/06 12:27:56;;;;;;;21.03;20.20;;;22.80;68.90;;;;;;5054870;28;20455;-57
2023/01/06 12:30:31;;;;;;;21.57;20.67;;;22.80;68.90;;;;;;5054022;28;20476;-61
2023/01/06 12:33:03;;;;;;;22.47;21.43;;;22.80;69.00;;;;;;5054693;28;20787;-58
2023/01/06 12:35:34;;;;;;;22.90;22.00;;;22.80;68.90;;;;;;5054177;28;20444;-61
2023/01/06 12:38:09;;;;;;;22.23;21.30;;;22.80;69.00;;;;;;5054239;28;20506;-59
2023/01/06 12:40:44;;;;;;;20.80;20.00;;;22.80;68.90;;;;;;5054008;28;20490;-62
2023/01/06 12:43:16;;;;;;;20.90;20.00;;;22.80;68.90;;;;;;5053952;28;20489;-57
2023/01/06 12:45:51;;;;;;;21.33;20.53;;;22.80;68.80;;;;;;5053875;28;20475;-59